Plano, TX (75023)

7:19 AM CST on November 23, 2014 (GMT -0600)
Cliffside Dr (Custer/SpringCreek) | Change Station
CLOSE
Current Station
Personal Weather Station
Location: Plano, TX
Elevation: 692 ft
Nearby Weather Stations
Active Advisory: Wind Advisory

Elev 692 ft 33.06 °N, 96.74 °W | Updated 3 seconds ago

Fog
Fog
58.1 °F
Feels Like 58.1 °F
N
2.0
Wind Variable Wind from SE
Gusts 2.2 mph

Today
High -- | Low -- °F
--% Chance of Precip.
Yesterday
High -- | Low -- °F
Precip. -- in
7:04 AM 5:21 PM
New Moon, 1% visible
Pressure 29.59 in
Visibility 3.0 miles
Clouds Overcast 300 ft
Dew Point 58 °F
Humidity 98%
Rainfall 0.00 in
Snow Depth Not available.
UV 0 out of 12
Pollen 3.70 out of 12
Air Quality Not available.
Flu Activity Not available.
METAR KADS 231247Z 18006KT 3SM BR OVC003 14/13 A2959

More Conditions Fewer Conditions

Pressure 29.59 in
Visibility 3.0 miles
Clouds Overcast 300 ft
Dew Point 58 °F
Humidity 98%
Rainfall 0.00 in
Snow Depth Not available.
UV 0 out of 12
Pollen 3.70 out of 12
Air Quality Not available.
Flu Activity Not available.
METAR KADS 231247Z 18006KT 3SM BR OVC003 14/13 A2959

More Conditions Fewer Conditions

Nowcast | as of 6:08 am CST on November 23, 2014

A few showers will linger east of an Athens to Franklin line through 8 am. Rainfall amounts will be light and average only a few hundredths of an inch. All precipitation will end by 8 am. Otherwise...clouds will continue to clear from west to east through the morning with temperatures warming mostly into the middle and upper 60s by midday.

×

10-Day Weather Forecast

Almanac

Astronomy

Nov. 23, 2014 Rise Set
Actual Time
Civil Twilight
Nautical Twilight
Astronomical Twilight
Moon
Length of Visible Light
Length of Day
Tomorrow will be .
, % of the Moon is Illuminated

Today's Extremes

State Highs State Lows

Community

WunderPhotos

Upload Photos

1,773,054 photos uploaded!

WunderBlogs® & News

Nearby

Air Quality

  Air Quality AQ Index Pollutant
Not available.

Snow Depth

Station Depth Elevation

Earthquake Activity

City Distance Mag. Time & Date
Minimum magnitude displayed is 2.5.

Coastal Water Temperatures

Place Temperature

Nearby Weather Stations